Plevna, Montana
Current Conditions -  °F | °C
As of 10:51 AM on Saturday 20 Dec 2014 (Local Time) from KBHK Reporting Station
Clear Clear  
Wind Chill: 36°   Ceiling: Unl
Heat Index: 43°   Visibility: 10mi
Dew Point: 29°   Wind: 13mph
Humidity: 58%   Direction: 260°W
Pressure: 29.88"   Gusts: NA
Location:  46.42°N, 104.52°W
Report Text: KBHK 201751Z AUTO 26011KT 10SM CLR 06/M02 A2988 RMK AO2 SLP140 T00611017 10061 21017 50003
Loading
Personal Weather Stations






























Interactive Weather Map New forecast layout! Learn more

10-Day Weather Forecast

Advertisements
Track Severe Weather on mobile